Airfield :
LOGIN :

Register | Disclaimer

   EN    FR    IT 

 










Legend :    VFR   Marginal VFR   IFR   Intensive IFR   Very Intensive IFR
Visi :
Ceiling :
>= 8 km
>= 3000ft
5 to 8 km
1000 to 3000 ft
1500m to 5 km
500 to 1000 ft
800 to 1500m
200 to 500 ft
< 800m
< 200 ft
Symbols :   Thunderstorms  Fog  Heavy snow  Heavy precipitations  Wind > 20 kt
SIGMETs :     Misc.  Thunderstorms  Icing  Turbulence  Mountain Waves  Volcanic Ashes






- Airport Elevation : 52 ft
- IATA code : IOM


EGNS - Isle of Man

CURRENT METAR :
  • 010520Z 31012KT 9999 FEW018 OVC045 07/02 Q1026 NOSIG

EXPIRED METARs :
  • 010450Z 31009KT 9999 FEW018 OVC045 07/03 Q1027 NOSIG
  • 010420Z 30006KT 9999 FEW030 OVC045 07/03 Q1027 NOSIG
  • 010350Z 31010KT 9999 FEW018 SCT030 06/03 Q1027
  • 010250Z 33009KT 300V360 9999 FEW018 OVC045 07/03 Q1028

TAF TAF EGNS
Valid from the 01 at 06:00 until the 01 at 09:00 UTC


010500Z 0106/0109 31010KT 9999 FEW018 BKN045



MET'MAP, your aeronautical weather chart ! - Copyright ORBIFLY December 2007 - Disclaimer

ORBIFLY MET'MAP TEAM :

Programming & Development : Alexandra Zaïnal
Concept & original design : Baudouin d'Aumeries
Assistance for programming : Marc-Olivier Méhu
Technical & hardware support : Manuel Goepfert

Contact : metmap@orbifly.com




SOURCES & CREDITS :

   NOAA